createdAt,value
2022-07-29T00:04:48.713Z,101460.00
2022-07-29T00:09:52.744Z,101468.81
2022-07-29T00:14:58.236Z,101469.78
2022-07-29T00:19:59.936Z,101462.59
2022-07-29T00:25:01.816Z,101471.41
2022-07-29T00:30:06.066Z,101450.97
2022-07-29T00:35:28.124Z,101442.06
2022-07-29T00:40:29.859Z,101450.88
2022-07-29T00:45:31.794Z,101446.41
2022-07-29T00:50:34.522Z,101448.03
2022-07-29T00:55:36.894Z,101441.66
2022-07-29T01:00:38.639Z,101442.47
2022-07-29T01:05:49.980Z,101432.78
2022-07-29T01:10:55.283Z,101434.56
2022-07-29T01:16:09.643Z,101436.31
2022-07-29T01:21:57.517Z,101435.47
2022-07-29T01:27:53.434Z,101414.41
2022-07-29T01:33:07.724Z,101402.84
2022-07-29T01:38:26.087Z,101405.56
2022-07-29T01:43:54.495Z,101363.38
2022-07-29T01:49:12.513Z,101366.16
2022-07-29T01:54:35.549Z,101355.44
2022-07-29T01:59:39.522Z,101349.19
2022-07-29T02:04:43.968Z,101358.78
2022-07-29T02:09:50.377Z,101355.25
2022-07-29T02:14:55.426Z,101355.16
2022-07-29T02:20:02.755Z,101349.66
2022-07-29T02:25:07.767Z,101359.09
2022-07-29T02:30:16.161Z,101369.63
2022-07-29T02:35:19.779Z,101374.03
2022-07-29T02:40:21.550Z,101351.28
2022-07-29T02:45:23.398Z,101359.09
2022-07-29T02:50:38.152Z,101366.09
2022-07-29T02:56:07.911Z,101370.44
2022-07-29T03:01:21.746Z,101363.66
2022-07-29T03:06:37.587Z,101363.72
2022-07-29T03:11:49.418Z,101361.00
2022-07-29T03:16:54.094Z,101357.28
2022-07-29T03:21:59.688Z,101360.72
2022-07-29T03:27:03.306Z,101350.00
2022-07-29T03:32:08.851Z,101354.19
2022-07-29T03:37:10.813Z,101337.34
2022-07-29T03:42:17.284Z,101343.50
2022-07-29T03:47:43.549Z,101342.66
2022-07-29T03:52:53.429Z,101337.53
2022-07-29T03:57:59.271Z,101336.50
2022-07-29T04:03:01.991Z,101333.22
2022-07-29T04:08:03.823Z,101336.75
2022-07-29T04:13:05.524Z,101336.72
2022-07-29T04:18:07.316Z,101342.03
2022-07-29T04:23:09.138Z,101350.91
2022-07-29T04:28:11.327Z,101347.56
2022-07-29T04:33:13.225Z,101347.53
2022-07-29T04:38:15.771Z,101345.13
2022-07-29T04:43:20.573Z,101350.53
2022-07-29T04:48:28.758Z,101349.63
2022-07-29T04:53:30.823Z,101352.41
2022-07-29T04:58:34.953Z,101342.66
2022-07-29T05:03:36.657Z,101345.19
2022-07-29T05:08:38.835Z,101343.59
2022-07-29T05:13:45.448Z,101339.50
2022-07-29T05:18:48.731Z,101339.75
2022-07-29T05:23:50.458Z,101334.56
2022-07-29T05:28:52.192Z,101338.91
2022-07-29T05:33:54.066Z,101345.91
2022-07-29T05:38:55.775Z,101329.09
2022-07-29T05:43:57.663Z,101328.22
2022-07-29T05:48:59.387Z,101342.44
2022-07-29T05:54:01.247Z,101340.06
2022-07-29T05:59:03.001Z,101344.91
2022-07-29T06:04:04.961Z,101345.38
2022-07-29T06:09:09.157Z,101343.16
2022-07-29T06:14:15.343Z,101344.69
2022-07-29T06:19:17.391Z,101326.41
2022-07-29T06:24:19.601Z,101337.91
2022-07-29T06:29:21.561Z,101331.75
2022-07-29T06:34:23.338Z,101333.47
2022-07-29T06:39:25.058Z,101326.38
2022-07-29T06:44:26.794Z,101335.97
2022-07-29T06:49:28.712Z,101350.94
2022-07-29T06:54:30.512Z,101343.03
2022-07-29T06:59:35.811Z,101333.41
2022-07-29T07:04:37.784Z,101348.47
2022-07-29T07:09:40.657Z,101340.44
2022-07-29T07:14:42.815Z,101343.94
2022-07-29T07:19:46.016Z,101344.44
2022-07-29T07:24:47.739Z,101334.97
2022-07-29T07:29:49.574Z,101337.31
2022-07-29T07:34:51.363Z,101331.91
2022-07-29T07:39:54.051Z,101336.66
2022-07-29T07:45:12.560Z,101323.19
2022-07-29T07:50:18.890Z,101335.13
2022-07-29T07:55:21.682Z,101325.38
2022-07-29T08:00:24.558Z,101310.59
2022-07-29T08:05:26.333Z,101309.31
2022-07-29T08:10:53.711Z,101306.16
2022-07-29T08:16:00.245Z,101308.44
2022-07-29T08:21:02.009Z,101299.63
2022-07-29T08:26:03.700Z,101304.72
2022-07-29T08:31:06.065Z,101306.16
2022-07-29T08:36:08.321Z,101301.69
2022-07-29T08:41:10.223Z,101296.66
2022-07-29T08:46:11.976Z,101284.44
2022-07-29T08:51:21.229Z,101302.22
2022-07-29T08:56:23.803Z,101296.22
2022-07-29T09:01:35.998Z,101302.06
2022-07-29T09:06:46.357Z,101291.66
2022-07-29T09:11:48.425Z,101305.31
2022-07-29T09:16:57.549Z,101291.56
2022-07-29T09:22:03.467Z,101307.22
2022-07-29T09:27:30.007Z,101297.53
2022-07-29T09:32:33.426Z,101298.34
2022-07-29T09:37:35.201Z,101292.34
2022-07-29T09:42:37.356Z,101280.63
2022-07-29T09:47:50.053Z,101272.81
2022-07-29T09:52:54.332Z,101273.16
2022-07-29T09:58:21.177Z,101270.81
2022-07-29T10:03:25.073Z,101267.59
2022-07-29T10:08:27.902Z,101271.41
2022-07-29T10:13:29.674Z,101248.16
2022-07-29T10:18:31.903Z,101254.31
2022-07-29T10:23:46.854Z,101261.09
2022-07-29T10:28:49.073Z,101264.72
2022-07-29T10:34:20.802Z,101262.66
2022-07-29T10:40:37.471Z,101257.66
2022-07-29T10:45:43.493Z,101253.09
2022-07-29T10:51:03.971Z,101249.28
2022-07-29T10:56:25.400Z,101253.34
2022-07-29T11:01:37.420Z,101256.22
2022-07-29T11:07:17.633Z,101253.66
2022-07-29T11:12:37.650Z,101249.63
2022-07-29T11:18:05.297Z,101249.47
2022-07-29T11:23:40.294Z,101229.47
2022-07-29T11:34:37.891Z,101228.75
2022-07-29T11:40:01.517Z,101234.53
2022-07-29T11:45:41.015Z,101233.09
2022-07-29T11:50:37.687Z,101217.19
2022-07-29T11:55:51.813Z,101207.03
2022-07-29T12:06:18.313Z,101189.50
2022-07-29T12:07:01.387Z,101239.78
2022-07-29T12:07:03.764Z,101205.53
2022-07-29T12:11:23.488Z,101195.59
2022-07-29T12:16:37.279Z,101198.13
2022-07-29T12:21:59.505Z,101188.00
2022-07-29T12:27:05.186Z,101186.13
2022-07-29T12:32:15.000Z,101169.88
2022-07-29T12:37:35.738Z,101176.00
2022-07-29T12:43:05.986Z,101185.56
2022-07-29T12:48:14.633Z,101167.25
2022-07-29T12:53:17.823Z,101155.13
2022-07-29T12:58:41.894Z,101169.56
2022-07-29T13:04:03.240Z,101169.47
2022-07-29T13:09:12.500Z,101141.03
2022-07-29T13:14:31.564Z,101168.97
2022-07-29T13:19:52.292Z,101163.06
2022-07-29T13:25:05.585Z,101155.03
2022-07-29T13:30:10.667Z,101139.13
2022-07-29T13:35:12.805Z,101117.41
2022-07-29T13:40:15.253Z,101124.53
2022-07-29T13:45:17.393Z,101135.59
2022-07-29T13:50:19.180Z,101120.34
2022-07-29T13:55:21.013Z,101134.31
2022-07-29T14:00:24.539Z,101135.69
2022-07-29T14:05:26.306Z,101127.59
2022-07-29T14:10:28.174Z,101127.63
2022-07-29T14:15:29.938Z,101107.25
2022-07-29T14:20:32.274Z,101103.53
2022-07-29T14:25:34.029Z,101101.09
2022-07-29T14:30:35.916Z,101089.06
2022-07-29T14:35:37.785Z,101088.28
2022-07-29T14:40:39.486Z,101082.97
2022-07-29T14:45:42.109Z,101077.41
2022-07-29T14:50:43.888Z,101080.25
2022-07-29T14:55:51.718Z,101064.59
2022-07-29T15:00:55.546Z,101071.38
2022-07-29T15:05:57.437Z,101079.69
2022-07-29T15:11:00.337Z,101074.97
2022-07-29T15:16:02.263Z,101082.16
2022-07-29T15:21:04.024Z,101062.38
2022-07-29T15:26:05.849Z,101065.66
2022-07-29T15:31:07.517Z,101071.66
2022-07-29T15:36:09.560Z,101071.47
2022-07-29T15:41:15.332Z,101063.34
2022-07-29T15:46:38.785Z,101070.13
2022-07-29T15:51:40.496Z,101058.44
2022-07-29T15:56:42.290Z,101056.06
2022-07-29T16:01:44.000Z,101053.75
2022-07-29T16:06:47.611Z,101063.47
2022-07-29T16:11:50.929Z,101057.94
2022-07-29T16:16:52.711Z,101049.63
2022-07-29T16:21:59.531Z,101047.94
2022-07-29T16:27:01.956Z,101041.75
2022-07-29T16:32:06.664Z,101042.53
2022-07-29T16:37:08.470Z,101025.00
2022-07-29T16:42:21.236Z,101018.88
2022-07-29T16:47:32.333Z,101008.50
2022-07-29T16:52:34.266Z,101014.78
2022-07-29T16:57:36.061Z,101013.03
2022-07-29T17:02:38.731Z,101020.34
2022-07-29T17:07:41.639Z,101002.84
2022-07-29T17:12:43.620Z,101027.38
2022-07-29T17:17:55.251Z,101031.88
2022-07-29T17:22:58.647Z,101026.59
2022-07-29T17:28:01.583Z,101019.72
2022-07-29T17:33:03.429Z,101018.94
2022-07-29T17:38:05.221Z,101032.47
2022-07-29T17:43:09.229Z,101023.88
2022-07-29T17:48:11.212Z,101035.53
2022-07-29T17:53:15.683Z,101031.41
2022-07-29T17:58:18.454Z,101026.38
2022-07-29T18:03:20.603Z,101035.28
2022-07-29T18:08:22.329Z,101033.69
2022-07-29T18:13:24.686Z,101026.03
2022-07-29T18:18:26.437Z,101036.03
2022-07-29T18:23:28.190Z,101039.72
2022-07-29T18:28:29.974Z,101046.94
2022-07-29T18:33:32.634Z,101031.31
2022-07-29T18:38:34.927Z,101038.31
2022-07-29T18:43:36.688Z,101055.38
2022-07-29T18:48:38.420Z,101053.69
2022-07-29T18:53:40.313Z,101054.72
2022-07-29T18:58:42.074Z,101047.88
2022-07-29T19:03:43.985Z,101059.50
2022-07-29T19:08:45.727Z,101048.22
2022-07-29T19:13:47.493Z,101052.88
2022-07-29T19:18:49.232Z,101075.06
2022-07-29T19:24:00.660Z,101084.09
2022-07-29T19:29:09.436Z,101096.69
2022-07-29T19:34:12.134Z,101081.84
2022-07-29T19:39:15.274Z,101087.38
2022-07-29T19:44:17.150Z,101099.75
2022-07-29T19:49:18.921Z,101100.03
2022-07-29T19:54:20.729Z,101090.44
2022-07-29T19:59:23.964Z,101095.88
2022-07-29T20:04:27.392Z,101096.03
2022-07-29T20:09:29.181Z,101098.78
2022-07-29T20:14:30.960Z,101087.56
2022-07-29T20:19:33.777Z,101095.63
2022-07-29T20:24:35.505Z,101091.34
2022-07-29T20:29:38.243Z,101099.41
2022-07-29T20:34:43.198Z,101099.50
2022-07-29T20:39:47.819Z,101095.22
2022-07-29T20:44:51.069Z,101100.69
2022-07-29T20:49:53.310Z,101107.75
2022-07-29T20:54:58.174Z,101085.06
2022-07-29T20:59:59.881Z,101107.94
2022-07-29T21:05:01.811Z,101088.66
2022-07-29T21:10:05.375Z,101098.47
2022-07-29T21:15:08.121Z,101117.84
2022-07-29T21:20:10.842Z,101103.78
2022-07-29T21:25:12.768Z,101112.66
2022-07-29T21:30:14.577Z,101117.13
2022-07-29T21:35:35.729Z,101128.56
2022-07-29T21:40:38.873Z,101113.66
2022-07-29T21:45:41.565Z,101126.06
2022-07-29T21:50:43.741Z,101113.75
2022-07-29T21:55:47.906Z,101109.34
2022-07-29T22:00:50.033Z,101119.16
2022-07-29T22:05:52.022Z,101114.78
2022-07-29T22:10:54.998Z,101110.41
2022-07-29T22:15:56.762Z,101117.47
2022-07-29T22:20:58.437Z,101105.25
2022-07-29T22:26:00.161Z,101107.00
2022-07-29T22:31:02.336Z,101107.06
2022-07-29T22:36:04.585Z,101106.22
2022-07-29T22:41:06.328Z,101107.09
2022-07-29T22:46:10.403Z,101094.81
2022-07-29T22:51:12.844Z,101078.94
2022-07-29T22:56:15.064Z,101076.34
2022-07-29T23:01:37.240Z,101072.84
2022-07-29T23:06:39.866Z,101092.22
2022-07-29T23:11:41.662Z,101074.97
2022-07-29T23:16:43.425Z,101073.28
2022-07-29T23:21:45.289Z,101066.25
2022-07-29T23:26:47.003Z,101062.75
2022-07-29T23:31:48.695Z,101081.22
2022-07-29T23:36:50.659Z,101071.59
2022-07-29T23:41:52.350Z,101061.91
2022-07-29T23:46:54.106Z,101053.13
2022-07-29T23:51:55.886Z,101051.41
2022-07-29T23:56:58.183Z,101076.94
